sensor_id;sensor_type;location;lat;lon;timestamp;P1;P2;P0
64697;PMS5003;51124;53.394;-6.294;2023-06-14T00:01:13;24;24;
64697;PMS5003;51124;53.394;-6.294;2023-06-14T00:03:39;24;24;
64697;PMS5003;51124;53.394;-6.294;2023-06-14T00:06:04;26;25;
64697;PMS5003;51124;53.394;-6.294;2023-06-14T00:08:30;25;24;
64697;PMS5003;51124;53.394;-6.294;2023-06-14T00:10:55;25;25;
64697;PMS5003;51124;53.394;-6.294;2023-06-14T00:13:20;24;24;
64697;PMS5003;51124;53.394;-6.294;2023-06-14T00:15:46;25;25;
64697;PMS5003;51124;53.394;-6.294;2023-06-14T00:18:12;24;24;
64697;PMS5003;51124;53.394;-6.294;2023-06-14T00:20:37;23;23;
64697;PMS5003;51124;53.394;-6.294;2023-06-14T00:23:02;20;20;
64697;PMS5003;51124;53.394;-6.294;2023-06-14T00:25:28;19;19;
64697;PMS5003;51124;53.394;-6.294;2023-06-14T00:27:54;22;21;
64697;PMS5003;51124;53.394;-6.294;2023-06-14T00:30:20;24;23;
64697;PMS5003;51124;53.394;-6.294;2023-06-14T00:32:45;25;25;
64697;PMS5003;51124;53.394;-6.294;2023-06-14T00:35:12;25;25;
64697;PMS5003;51124;53.394;-6.294;2023-06-14T00:37:37;22;22;
64697;PMS5003;51124;53.394;-6.294;2023-06-14T00:40:03;21;21;
64697;PMS5003;51124;53.394;-6.294;2023-06-14T00:42:29;22;21;
64697;PMS5003;51124;53.394;-6.294;2023-06-14T00:44:54;25;23;
64697;PMS5003;51124;53.394;-6.294;2023-06-14T00:47:20;26;23;
64697;PMS5003;51124;53.394;-6.294;2023-06-14T00:49:46;23;22;
64697;PMS5003;51124;53.394;-6.294;2023-06-14T00:52:13;22;22;
64697;PMS5003;51124;53.394;-6.294;2023-06-14T00:54:40;24;24;
64697;PMS5003;51124;53.394;-6.294;2023-06-14T00:57:06;22;22;
64697;PMS5003;51124;53.394;-6.294;2023-06-14T00:59:31;23;23;
64697;PMS5003;51124;53.394;-6.294;2023-06-14T01:01:57;23;23;
64697;PMS5003;51124;53.394;-6.294;2023-06-14T01:04:23;25;24;
64697;PMS5003;51124;53.394;-6.294;2023-06-14T01:06:49;24;23;
64697;PMS5003;51124;53.394;-6.294;2023-06-14T01:09:26;21;20;
64697;PMS5003;51124;53.394;-6.294;2023-06-14T01:11:54;23;22;
64697;PMS5003;51124;53.394;-6.294;2023-06-14T01:14:24;23;22;
64697;PMS5003;51124;53.394;-6.294;2023-06-14T01:16:51;26;23;
64697;PMS5003;51124;53.394;-6.294;2023-06-14T01:19:17;27;24;
64697;PMS5003;51124;53.394;-6.294;2023-06-14T01:21:44;27;24;
64697;PMS5003;51124;53.394;-6.294;2023-06-14T01:24:10;25;23;
64697;PMS5003;51124;53.394;-6.294;2023-06-14T01:26:35;25;25;
64697;PMS5003;51124;53.394;-6.294;2023-06-14T01:29:02;26;26;
64697;PMS5003;51124;53.394;-6.294;2023-06-14T01:31:28;26;24;
64697;PMS5003;51124;53.394;-6.294;2023-06-14T01:33:54;28;25;
64697;PMS5003;51124;53.394;-6.294;2023-06-14T01:36:20;26;23;
64697;PMS5003;51124;53.394;-6.294;2023-06-14T01:38:46;22;21;
64697;PMS5003;51124;53.394;-6.294;2023-06-14T01:41:12;22;22;
64697;PMS5003;51124;53.394;-6.294;2023-06-14T01:43:39;24;24;
64697;PMS5003;51124;53.394;-6.294;2023-06-14T01:46:05;25;25;
64697;PMS5003;51124;53.394;-6.294;2023-06-14T01:48:32;24;24;
64697;PMS5003;51124;53.394;-6.294;2023-06-14T01:50:58;26;25;
64697;PMS5003;51124;53.394;-6.294;2023-06-14T01:53:23;26;26;
64697;PMS5003;51124;53.394;-6.294;2023-06-14T01:55:48;23;23;
64697;PMS5003;51124;53.394;-6.294;2023-06-14T01:58:14;21;21;
64697;PMS5003;51124;53.394;-6.294;2023-06-14T02:00:39;22;22;
64697;PMS5003;51124;53.394;-6.294;2023-06-14T02:03:05;22;22;
64697;PMS5003;51124;53.394;-6.294;2023-06-14T02:05:31;26;23;
64697;PMS5003;51124;53.394;-6.294;2023-06-14T02:07:56;29;25;
64697;PMS5003;51124;53.394;-6.294;2023-06-14T02:10:22;27;26;
64697;PMS5003;51124;53.394;-6.294;2023-06-14T02:12:47;26;26;
64697;PMS5003;51124;53.394;-6.294;2023-06-14T02:15:12;23;23;
64697;PMS5003;51124;53.394;-6.294;2023-06-14T02:17:38;22;22;
64697;PMS5003;51124;53.394;-6.294;2023-06-14T02:20:04;24;24;
64697;PMS5003;51124;53.394;-6.294;2023-06-14T02:22:30;25;25;
64697;PMS5003;51124;53.394;-6.294;2023-06-14T02:24:56;22;22;
64697;PMS5003;51124;53.394;-6.294;2023-06-14T02:27:21;21;20;
64697;PMS5003;51124;53.394;-6.294;2023-06-14T02:29:46;22;21;
64697;PMS5003;51124;53.394;-6.294;2023-06-14T02:32:12;22;22;
64697;PMS5003;51124;53.394;-6.294;2023-06-14T02:34:37;23;23;
64697;PMS5003;51124;53.394;-6.294;2023-06-14T02:37:03;23;23;
64697;PMS5003;51124;53.394;-6.294;2023-06-14T02:39:28;23;22;
64697;PMS5003;51124;53.394;-6.294;2023-06-14T02:41:54;23;22;
64697;PMS5003;51124;53.394;-6.294;2023-06-14T02:44:19;22;22;
64697;PMS5003;51124;53.394;-6.294;2023-06-14T02:46:48;23;23;
64697;PMS5003;51124;53.394;-6.294;2023-06-14T02:49:13;22;22;
64697;PMS5003;51124;53.394;-6.294;2023-06-14T02:51:38;24;24;
64697;PMS5003;51124;53.394;-6.294;2023-06-14T02:54:04;24;22;
64697;PMS5003;51124;53.394;-6.294;2023-06-14T02:56:29;23;21;
64697;PMS5003;51124;53.394;-6.294;2023-06-14T02:58:55;23;23;
64697;PMS5003;51124;53.394;-6.294;2023-06-14T03:01:20;22;22;
64697;PMS5003;51124;53.394;-6.294;2023-06-14T03:03:46;23;23;
64697;PMS5003;51124;53.394;-6.294;2023-06-14T03:06:12;25;23;
64697;PMS5003;51124;53.394;-6.294;2023-06-14T03:08:37;25;22;
64697;PMS5003;51124;53.394;-6.294;2023-06-14T03:11:02;22;22;
64697;PMS5003;51124;53.394;-6.294;2023-06-14T03:13:28;25;23;
64697;PMS5003;51124;53.394;-6.294;2023-06-14T03:15:53;23;22;
64697;PMS5003;51124;53.394;-6.294;2023-06-14T03:18:19;24;24;
64697;PMS5003;51124;53.394;-6.294;2023-06-14T03:20:44;26;26;
64697;PMS5003;51124;53.394;-6.294;2023-06-14T03:23:10;28;27;
64697;PMS5003;51124;53.394;-6.294;2023-06-14T03:25:35;25;25;
64697;PMS5003;51124;53.394;-6.294;2023-06-14T03:28:01;21;21;
64697;PMS5003;51124;53.394;-6.294;2023-06-14T03:30:26;26;26;
64697;PMS5003;51124;53.394;-6.294;2023-06-14T03:32:54;25;24;
64697;PMS5003;51124;53.394;-6.294;2023-06-14T03:35:19;23;22;
64697;PMS5003;51124;53.394;-6.294;2023-06-14T03:37:44;24;22;
64697;PMS5003;51124;53.394;-6.294;2023-06-14T03:40:11;23;22;
64697;PMS5003;51124;53.394;-6.294;2023-06-14T03:42:39;23;21;
64697;PMS5003;51124;53.394;-6.294;2023-06-14T03:45:05;22;22;
64697;PMS5003;51124;53.394;-6.294;2023-06-14T03:47:34;25;23;
64697;PMS5003;51124;53.394;-6.294;2023-06-14T03:50:00;26;23;
64697;PMS5003;51124;53.394;-6.294;2023-06-14T03:52:25;26;24;
64697;PMS5003;51124;53.394;-6.294;2023-06-14T03:54:51;26;24;
64697;PMS5003;51124;53.394;-6.294;2023-06-14T03:57:16;24;23;
64697;PMS5003;51124;53.394;-6.294;2023-06-14T03:59:42;23;23;
64697;PMS5003;51124;53.394;-6.294;2023-06-14T04:02:08;23;23;
64697;PMS5003;51124;53.394;-6.294;2023-06-14T04:04:33;22;22;
64697;PMS5003;51124;53.394;-6.294;2023-06-14T04:06:59;22;22;
64697;PMS5003;51124;53.394;-6.294;2023-06-14T04:09:24;22;22;
64697;PMS5003;51124;53.394;-6.294;2023-06-14T04:11:50;21;21;
64697;PMS5003;51124;53.394;-6.294;2023-06-14T04:14:16;22;22;
64697;PMS5003;51124;53.394;-6.294;2023-06-14T04:16:42;24;24;
64697;PMS5003;51124;53.394;-6.294;2023-06-14T04:19:07;24;24;
64697;PMS5003;51124;53.394;-6.294;2023-06-14T04:21:32;24;24;
64697;PMS5003;51124;53.394;-6.294;2023-06-14T04:23:58;26;25;
64697;PMS5003;51124;53.394;-6.294;2023-06-14T04:26:23;24;23;
64697;PMS5003;51124;53.394;-6.294;2023-06-14T04:28:49;22;21;
64697;PMS5003;51124;53.394;-6.294;2023-06-14T04:31:14;21;20;
64697;PMS5003;51124;53.394;-6.294;2023-06-14T04:33:40;22;22;
64697;PMS5003;51124;53.394;-6.294;2023-06-14T04:36:05;22;22;
64697;PMS5003;51124;53.394;-6.294;2023-06-14T04:38:30;21;20;
64697;PMS5003;51124;53.394;-6.294;2023-06-14T04:40:56;25;22;
64697;PMS5003;51124;53.394;-6.294;2023-06-14T04:43:21;23;22;
64697;PMS5003;51124;53.394;-6.294;2023-06-14T04:45:46;21;21;
64697;PMS5003;51124;53.394;-6.294;2023-06-14T04:48:12;21;21;
64697;PMS5003;51124;53.394;-6.294;2023-06-14T04:50:37;21;21;
64697;PMS5003;51124;53.394;-6.294;2023-06-14T04:53:02;25;23;
64697;PMS5003;51124;53.394;-6.294;2023-06-14T04:55:28;23;22;
64697;PMS5003;51124;53.394;-6.294;2023-06-14T04:57:53;21;21;
64697;PMS5003;51124;53.394;-6.294;2023-06-14T05:00:19;21;21;
64697;PMS5003;51124;53.394;-6.294;2023-06-14T05:02:44;22;22;
64697;PMS5003;51124;53.394;-6.294;2023-06-14T05:05:10;22;22;
64697;PMS5003;51124;53.394;-6.294;2023-06-14T05:07:35;20;20;
64697;PMS5003;51124;53.394;-6.294;2023-06-14T05:10:01;24;22;
64697;PMS5003;51124;53.394;-6.294;2023-06-14T05:12:26;28;27;
64697;PMS5003;51124;53.394;-6.294;2023-06-14T05:14:52;28;27;
64697;PMS5003;51124;53.394;-6.294;2023-06-14T05:17:17;24;23;
64697;PMS5003;51124;53.394;-6.294;2023-06-14T05:19:43;20;19;
64697;PMS5003;51124;53.394;-6.294;2023-06-14T05:22:08;21;20;
64697;PMS5003;51124;53.394;-6.294;2023-06-14T05:24:33;24;24;
64697;PMS5003;51124;53.394;-6.294;2023-06-14T05:26:59;24;24;
64697;PMS5003;51124;53.394;-6.294;2023-06-14T05:29:24;24;23;
64697;PMS5003;51124;53.394;-6.294;2023-06-14T05:31:50;25;22;
64697;PMS5003;51124;53.394;-6.294;2023-06-14T05:34:15;21;20;
64697;PMS5003;51124;53.394;-6.294;2023-06-14T05:36:41;20;20;
64697;PMS5003;51124;53.394;-6.294;2023-06-14T05:39:06;19;19;
64697;PMS5003;51124;53.394;-6.294;2023-06-14T05:41:32;22;21;
64697;PMS5003;51124;53.394;-6.294;2023-06-14T05:43:57;24;22;
64697;PMS5003;51124;53.394;-6.294;2023-06-14T05:46:23;22;21;
64697;PMS5003;51124;53.394;-6.294;2023-06-14T05:48:48;22;22;
64697;PMS5003;51124;53.394;-6.294;2023-06-14T05:51:14;24;24;
64697;PMS5003;51124;53.394;-6.294;2023-06-14T05:53:40;23;23;
64697;PMS5003;51124;53.394;-6.294;2023-06-14T05:56:05;23;23;
64697;PMS5003;51124;53.394;-6.294;2023-06-14T05:58:31;23;23;
64697;PMS5003;51124;53.394;-6.294;2023-06-14T06:00:56;22;22;
64697;PMS5003;51124;53.394;-6.294;2023-06-14T06:03:22;20;20;
64697;PMS5003;51124;53.394;-6.294;2023-06-14T06:05:48;21;21;
64697;PMS5003;51124;53.394;-6.294;2023-06-14T06:08:13;22;19;
64697;PMS5003;51124;53.394;-6.294;2023-06-14T06:10:38;23;20;
64697;PMS5003;51124;53.394;-6.294;2023-06-14T06:13:04;19;19;
64697;PMS5003;51124;53.394;-6.294;2023-06-14T06:15:29;24;24;
64697;PMS5003;51124;53.394;-6.294;2023-06-14T06:17:55;24;23;
64697;PMS5003;51124;53.394;-6.294;2023-06-14T06:20:20;25;23;
64697;PMS5003;51124;53.394;-6.294;2023-06-14T06:22:46;25;24;
64697;PMS5003;51124;53.394;-6.294;2023-06-14T06:25:11;25;22;
64697;PMS5003;51124;53.394;-6.294;2023-06-14T06:27:36;24;21;
64697;PMS5003;51124;53.394;-6.294;2023-06-14T06:30:02;20;20;
64697;PMS5003;51124;53.394;-6.294;2023-06-14T06:32:28;23;23;
64697;PMS5003;51124;53.394;-6.294;2023-06-14T06:34:54;20;20;
64697;PMS5003;51124;53.394;-6.294;2023-06-14T06:37:19;19;19;
64697;PMS5003;51124;53.394;-6.294;2023-06-14T06:39:44;20;20;
64697;PMS5003;51124;53.394;-6.294;2023-06-14T06:42:10;19;19;
64697;PMS5003;51124;53.394;-6.294;2023-06-14T06:44:35;25;23;
64697;PMS5003;51124;53.394;-6.294;2023-06-14T06:47:01;25;24;
64697;PMS5003;51124;53.394;-6.294;2023-06-14T06:49:26;22;22;
64697;PMS5003;51124;53.394;-6.294;2023-06-14T06:51:59;22;20;
64697;PMS5003;51124;53.394;-6.294;2023-06-14T06:54:26;21;19;
64697;PMS5003;51124;53.394;-6.294;2023-06-14T06:56:52;18;18;
64697;PMS5003;51124;53.394;-6.294;2023-06-14T06:59:17;20;20;
64697;PMS5003;51124;53.394;-6.294;2023-06-14T07:01:42;20;20;
64697;PMS5003;51124;53.394;-6.294;2023-06-14T07:04:08;20;20;
64697;PMS5003;51124;53.394;-6.294;2023-06-14T07:06:33;21;21;
64697;PMS5003;51124;53.394;-6.294;2023-06-14T07:08:59;20;19;
64697;PMS5003;51124;53.394;-6.294;2023-06-14T07:11:24;21;20;
64697;PMS5003;51124;53.394;-6.294;2023-06-14T07:13:50;22;22;
64697;PMS5003;51124;53.394;-6.294;2023-06-14T07:16:15;24;24;
64697;PMS5003;51124;53.394;-6.294;2023-06-14T07:18:41;23;22;
64697;PMS5003;51124;53.394;-6.294;2023-06-14T07:21:06;20;20;
64697;PMS5003;51124;53.394;-6.294;2023-06-14T07:23:32;20;20;
64697;PMS5003;51124;53.394;-6.294;2023-06-14T07:25:57;21;21;
64697;PMS5003;51124;53.394;-6.294;2023-06-14T07:28:22;24;23;
64697;PMS5003;51124;53.394;-6.294;2023-06-14T07:30:48;25;24;
64697;PMS5003;51124;53.394;-6.294;2023-06-14T07:33:13;25;21;
64697;PMS5003;51124;53.394;-6.294;2023-06-14T07:35:39;26;21;
64697;PMS5003;51124;53.394;-6.294;2023-06-14T07:38:04;21;20;
64697;PMS5003;51124;53.394;-6.294;2023-06-14T07:40:30;23;22;
64697;PMS5003;51124;53.394;-6.294;2023-06-14T07:42:55;22;20;
64697;PMS5003;51124;53.394;-6.294;2023-06-14T07:45:20;19;19;
64697;PMS5003;51124;53.394;-6.294;2023-06-14T07:47:46;19;19;
64697;PMS5003;51124;53.394;-6.294;2023-06-14T07:50:11;22;21;
64697;PMS5003;51124;53.394;-6.294;2023-06-14T07:52:36;23;23;
64697;PMS5003;51124;53.394;-6.294;2023-06-14T07:55:02;27;25;
64697;PMS5003;51124;53.394;-6.294;2023-06-14T07:57:28;27;24;
64697;PMS5003;51124;53.394;-6.294;2023-06-14T07:59:54;26;24;
64697;PMS5003;51124;53.394;-6.294;2023-06-14T08:02:19;23;23;
64697;PMS5003;51124;53.394;-6.294;2023-06-14T08:04:45;22;22;
64697;PMS5003;51124;53.394;-6.294;2023-06-14T08:07:10;21;21;
64697;PMS5003;51124;53.394;-6.294;2023-06-14T08:09:35;21;21;
64697;PMS5003;51124;53.394;-6.294;2023-06-14T08:12:01;23;21;
64697;PMS5003;51124;53.394;-6.294;2023-06-14T08:14:27;25;25;
64697;PMS5003;51124;53.394;-6.294;2023-06-14T08:16:52;25;24;
64697;PMS5003;51124;53.394;-6.294;2023-06-14T08:19:18;23;21;
64697;PMS5003;51124;53.394;-6.294;2023-06-14T08:21:43;25;21;
64697;PMS5003;51124;53.394;-6.294;2023-06-14T08:24:10;24;22;
64697;PMS5003;51124;53.394;-6.294;2023-06-14T08:26:35;22;22;
64697;PMS5003;51124;53.394;-6.294;2023-06-14T08:29:01;23;23;
64697;PMS5003;51124;53.394;-6.294;2023-06-14T08:31:26;21;21;
64697;PMS5003;51124;53.394;-6.294;2023-06-14T08:33:52;18;18;
64697;PMS5003;51124;53.394;-6.294;2023-06-14T08:36:17;18;18;
64697;PMS5003;51124;53.394;-6.294;2023-06-14T08:38:43;18;18;
64697;PMS5003;51124;53.394;-6.294;2023-06-14T08:41:08;22;22;
64697;PMS5003;51124;53.394;-6.294;2023-06-14T08:43:41;22;22;
64697;PMS5003;51124;53.394;-6.294;2023-06-14T08:46:06;23;23;
64697;PMS5003;51124;53.394;-6.294;2023-06-14T08:48:32;23;23;
64697;PMS5003;51124;53.394;-6.294;2023-06-14T08:50:58;20;20;
64697;PMS5003;51124;53.394;-6.294;2023-06-14T08:53:24;20;20;
64697;PMS5003;51124;53.394;-6.294;2023-06-14T08:55:50;23;23;
64697;PMS5003;51124;53.394;-6.294;2023-06-14T08:58:15;24;23;
64697;PMS5003;51124;53.394;-6.294;2023-06-14T09:00:41;22;22;
64697;PMS5003;51124;53.394;-6.294;2023-06-14T09:03:07;20;20;
64697;PMS5003;51124;53.394;-6.294;2023-06-14T09:05:33;20;20;
64697;PMS5003;51124;53.394;-6.294;2023-06-14T09:07:59;22;21;
64697;PMS5003;51124;53.394;-6.294;2023-06-14T09:10:24;22;21;
64697;PMS5003;51124;53.394;-6.294;2023-06-14T09:12:51;25;23;
64697;PMS5003;51124;53.394;-6.294;2023-06-14T09:15:17;26;23;
64697;PMS5003;51124;53.394;-6.294;2023-06-14T09:17:42;20;20;
64697;PMS5003;51124;53.394;-6.294;2023-06-14T09:20:09;21;19;
64697;PMS5003;51124;53.394;-6.294;2023-06-14T09:22:34;23;22;
64697;PMS5003;51124;53.394;-6.294;2023-06-14T09:25:00;22;22;
64697;PMS5003;51124;53.394;-6.294;2023-06-14T09:27:26;21;21;
64697;PMS5003;51124;53.394;-6.294;2023-06-14T09:29:52;19;19;
64697;PMS5003;51124;53.394;-6.294;2023-06-14T09:32:17;20;20;
64697;PMS5003;51124;53.394;-6.294;2023-06-14T09:34:44;20;20;
64697;PMS5003;51124;53.394;-6.294;2023-06-14T09:37:09;20;19;
64697;PMS5003;51124;53.394;-6.294;2023-06-14T09:39:34;20;19;
64697;PMS5003;51124;53.394;-6.294;2023-06-14T09:42:02;19;18;
64697;PMS5003;51124;53.394;-6.294;2023-06-14T09:44:31;22;21;
64697;PMS5003;51124;53.394;-6.294;2023-06-14T09:46:57;24;23;
64697;PMS5003;51124;53.394;-6.294;2023-06-14T09:49:22;22;22;
64697;PMS5003;51124;53.394;-6.294;2023-06-14T09:51:49;22;22;
64697;PMS5003;51124;53.394;-6.294;2023-06-14T09:54:16;24;23;
64697;PMS5003;51124;53.394;-6.294;2023-06-14T09:56:46;22;22;
64697;PMS5003;51124;53.394;-6.294;2023-06-14T09:59:14;21;20;
64697;PMS5003;51124;53.394;-6.294;2023-06-14T10:01:43;20;19;
64697;PMS5003;51124;53.394;-6.294;2023-06-14T10:04:11;18;18;
64697;PMS5003;51124;53.394;-6.294;2023-06-14T10:06:40;20;20;
64697;PMS5003;51124;53.394;-6.294;2023-06-14T10:09:08;22;20;
64697;PMS5003;51124;53.394;-6.294;2023-06-14T10:11:34;20;19;
64697;PMS5003;51124;53.394;-6.294;2023-06-14T10:14:01;20;20;
64697;PMS5003;51124;53.394;-6.294;2023-06-14T10:16:30;21;21;
64697;PMS5003;51124;53.394;-6.294;2023-06-14T10:19:02;22;21;
64697;PMS5003;51124;53.394;-6.294;2023-06-14T10:21:37;23;21;
64697;PMS5003;51124;53.394;-6.294;2023-06-14T10:24:10;21;21;
64697;PMS5003;51124;53.394;-6.294;2023-06-14T10:26:49;24;23;
64697;PMS5003;51124;53.394;-6.294;2023-06-14T10:29:07;22;22;
64697;PMS5003;51124;53.394;-6.294;2023-06-14T10:31:40;21;21;
64697;PMS5003;51124;53.394;-6.294;2023-06-14T10:34:07;20;20;
64697;PMS5003;51124;53.394;-6.294;2023-06-14T10:36:32;20;20;
64697;PMS5003;51124;53.394;-6.294;2023-06-14T10:38:58;24;21;
64697;PMS5003;51124;53.394;-6.294;2023-06-14T10:41:27;24;21;
64697;PMS5003;51124;53.394;-6.294;2023-06-14T10:44:02;22;21;
64697;PMS5003;51124;53.394;-6.294;2023-06-14T10:46:28;26;22;
64697;PMS5003;51124;53.394;-6.294;2023-06-14T10:48:55;25;21;
64697;PMS5003;51124;53.394;-6.294;2023-06-14T10:51:22;25;22;
64697;PMS5003;51124;53.394;-6.294;2023-06-14T10:53:48;24;22;
64697;PMS5003;51124;53.394;-6.294;2023-06-14T10:56:33;22;21;
64697;PMS5003;51124;53.394;-6.294;2023-06-14T10:58:48;24;23;
64697;PMS5003;51124;53.394;-6.294;2023-06-14T11:01:13;23;23;
64697;PMS5003;51124;53.394;-6.294;2023-06-14T11:03:46;21;21;
64697;PMS5003;51124;53.394;-6.294;2023-06-14T11:06:15;20;20;
64697;PMS5003;51124;53.394;-6.294;2023-06-14T11:08:51;19;19;
64697;PMS5003;51124;53.394;-6.294;2023-06-14T11:11:11;21;20;
64697;PMS5003;51124;53.394;-6.294;2023-06-14T11:13:38;23;21;
64697;PMS5003;51124;53.394;-6.294;2023-06-14T11:16:10;21;21;
64697;PMS5003;51124;53.394;-6.294;2023-06-14T11:18:36;21;20;
64697;PMS5003;51124;53.394;-6.294;2023-06-14T11:21:02;22;21;
64697;PMS5003;51124;53.394;-6.294;2023-06-14T11:23:27;19;19;
64697;PMS5003;51124;53.394;-6.294;2023-06-14T11:25:53;20;20;
64697;PMS5003;51124;53.394;-6.294;2023-06-14T11:28:18;22;22;
64697;PMS5003;51124;53.394;-6.294;2023-06-14T11:30:44;21;21;
64697;PMS5003;51124;53.394;-6.294;2023-06-14T11:33:09;22;22;
64697;PMS5003;51124;53.394;-6.294;2023-06-14T11:35:35;21;21;
64697;PMS5003;51124;53.394;-6.294;2023-06-14T11:38:01;21;18;
64697;PMS5003;51124;53.394;-6.294;2023-06-14T11:40:26;22;18;
64697;PMS5003;51124;53.394;-6.294;2023-06-14T11:42:57;22;21;
64697;PMS5003;51124;53.394;-6.294;2023-06-14T11:45:24;20;20;
64697;PMS5003;51124;53.394;-6.294;2023-06-14T11:47:50;22;20;
64697;PMS5003;51124;53.394;-6.294;2023-06-14T11:50:18;23;22;
64697;PMS5003;51124;53.394;-6.294;2023-06-14T11:52:43;22;22;
64697;PMS5003;51124;53.394;-6.294;2023-06-14T11:55:15;22;22;
64697;PMS5003;51124;53.394;-6.294;2023-06-14T11:57:41;21;21;
64697;PMS5003;51124;53.394;-6.294;2023-06-14T12:00:07;25;24;
64697;PMS5003;51124;53.394;-6.294;2023-06-14T12:02:33;26;25;
64697;PMS5003;51124;53.394;-6.294;2023-06-14T12:05:03;24;22;
64697;PMS5003;51124;53.394;-6.294;2023-06-14T12:07:30;23;19;
64697;PMS5003;51124;53.394;-6.294;2023-06-14T12:10:10;24;22;
64697;PMS5003;51124;53.394;-6.294;2023-06-14T12:12:27;22;22;
64697;PMS5003;51124;53.394;-6.294;2023-06-14T12:14:56;22;22;
64697;PMS5003;51124;53.394;-6.294;2023-06-14T12:17:22;23;23;
64697;PMS5003;51124;53.394;-6.294;2023-06-14T12:19:48;22;22;
64697;PMS5003;51124;53.394;-6.294;2023-06-14T12:22:14;21;21;
64697;PMS5003;51124;53.394;-6.294;2023-06-14T12:24:42;19;19;
64697;PMS5003;51124;53.394;-6.294;2023-06-14T12:27:07;21;21;
64697;PMS5003;51124;53.394;-6.294;2023-06-14T12:29:33;21;21;
64697;PMS5003;51124;53.394;-6.294;2023-06-14T12:31:58;21;21;
64697;PMS5003;51124;53.394;-6.294;2023-06-14T12:34:24;24;24;
64697;PMS5003;51124;53.394;-6.294;2023-06-14T12:36:50;22;21;
64697;PMS5003;51124;53.394;-6.294;2023-06-14T12:39:15;18;17;
64697;PMS5003;51124;53.394;-6.294;2023-06-14T12:41:41;20;20;
64697;PMS5003;51124;53.394;-6.294;2023-06-14T12:44:06;20;20;
64697;PMS5003;51124;53.394;-6.294;2023-06-14T12:46:32;20;20;
64697;PMS5003;51124;53.394;-6.294;2023-06-14T12:48:58;20;20;
64697;PMS5003;51124;53.394;-6.294;2023-06-14T12:51:23;21;21;
64697;PMS5003;51124;53.394;-6.294;2023-06-14T12:53:49;23;23;
64697;PMS5003;51124;53.394;-6.294;2023-06-14T12:56:14;23;23;
64697;PMS5003;51124;53.394;-6.294;2023-06-14T12:58:40;25;25;
64697;PMS5003;51124;53.394;-6.294;2023-06-14T13:01:05;24;24;
64697;PMS5003;51124;53.394;-6.294;2023-06-14T13:03:31;21;21;
64697;PMS5003;51124;53.394;-6.294;2023-06-14T13:05:57;21;21;
64697;PMS5003;51124;53.394;-6.294;2023-06-14T13:08:23;20;19;
64697;PMS5003;51124;53.394;-6.294;2023-06-14T13:10:48;21;19;
64697;PMS5003;51124;53.394;-6.294;2023-06-14T13:13:13;22;20;
64697;PMS5003;51124;53.394;-6.294;2023-06-14T13:15:39;20;20;
64697;PMS5003;51124;53.394;-6.294;2023-06-14T13:18:04;24;23;
64697;PMS5003;51124;53.394;-6.294;2023-06-14T13:20:30;25;23;
64697;PMS5003;51124;53.394;-6.294;2023-06-14T13:22:55;23;23;
64697;PMS5003;51124;53.394;-6.294;2023-06-14T13:25:21;24;23;
64697;PMS5003;51124;53.394;-6.294;2023-06-14T13:27:46;24;22;
64697;PMS5003;51124;53.394;-6.294;2023-06-14T13:30:12;22;20;
64697;PMS5003;51124;53.394;-6.294;2023-06-14T13:32:38;21;20;
64697;PMS5003;51124;53.394;-6.294;2023-06-14T13:35:04;20;20;
64697;PMS5003;51124;53.394;-6.294;2023-06-14T13:37:30;20;20;
64697;PMS5003;51124;53.394;-6.294;2023-06-14T13:39:55;24;22;
64697;PMS5003;51124;53.394;-6.294;2023-06-14T13:42:21;23;21;
64697;PMS5003;51124;53.394;-6.294;2023-06-14T13:44:46;22;22;
64697;PMS5003;51124;53.394;-6.294;2023-06-14T13:47:11;20;20;
64697;PMS5003;51124;53.394;-6.294;2023-06-14T13:49:37;22;20;
64697;PMS5003;51124;53.394;-6.294;2023-06-14T13:52:02;21;19;
64697;PMS5003;51124;53.394;-6.294;2023-06-14T13:54:28;21;21;
64697;PMS5003;51124;53.394;-6.294;2023-06-14T13:56:54;26;23;
64697;PMS5003;51124;53.394;-6.294;2023-06-14T13:59:19;24;21;
64697;PMS5003;51124;53.394;-6.294;2023-06-14T14:01:44;22;22;
64697;PMS5003;51124;53.394;-6.294;2023-06-14T14:04:10;21;21;
64697;PMS5003;51124;53.394;-6.294;2023-06-14T14:06:35;21;21;
64697;PMS5003;51124;53.394;-6.294;2023-06-14T14:09:01;20;20;
64697;PMS5003;51124;53.394;-6.294;2023-06-14T14:11:27;22;20;
64697;PMS5003;51124;53.394;-6.294;2023-06-14T14:13:52;25;21;
64697;PMS5003;51124;53.394;-6.294;2023-06-14T14:16:18;25;22;
64697;PMS5003;51124;53.394;-6.294;2023-06-14T14:18:43;22;21;
64697;PMS5003;51124;53.394;-6.294;2023-06-14T14:21:09;20;19;
64697;PMS5003;51124;53.394;-6.294;2023-06-14T14:23:34;20;20;
64697;PMS5003;51124;53.394;-6.294;2023-06-14T14:26:00;21;21;
64697;PMS5003;51124;53.394;-6.294;2023-06-14T14:28:25;24;22;
64697;PMS5003;51124;53.394;-6.294;2023-06-14T14:30:51;21;20;
64697;PMS5003;51124;53.394;-6.294;2023-06-14T14:33:16;22;19;
64697;PMS5003;51124;53.394;-6.294;2023-06-14T14:35:42;23;18;
64697;PMS5003;51124;53.394;-6.294;2023-06-14T14:38:07;23;20;
64697;PMS5003;51124;53.394;-6.294;2023-06-14T14:40:33;23;20;
64697;PMS5003;51124;53.394;-6.294;2023-06-14T14:42:58;21;19;
64697;PMS5003;51124;53.394;-6.294;2023-06-14T14:45:24;26;24;
64697;PMS5003;51124;53.394;-6.294;2023-06-14T14:47:49;25;21;
64697;PMS5003;51124;53.394;-6.294;2023-06-14T14:50:14;21;19;
64697;PMS5003;51124;53.394;-6.294;2023-06-14T14:52:40;20;20;
64697;PMS5003;51124;53.394;-6.294;2023-06-14T14:55:06;21;21;
64697;PMS5003;51124;53.394;-6.294;2023-06-14T14:57:32;22;21;
64697;PMS5003;51124;53.394;-6.294;2023-06-14T14:59:57;24;20;
64697;PMS5003;51124;53.394;-6.294;2023-06-14T15:02:23;23;20;
64697;PMS5003;51124;53.394;-6.294;2023-06-14T15:04:48;20;20;
64697;PMS5003;51124;53.394;-6.294;2023-06-14T15:07:13;19;19;
64697;PMS5003;51124;53.394;-6.294;2023-06-14T15:09:39;19;19;
64697;PMS5003;51124;53.394;-6.294;2023-06-14T15:12:04;22;22;
64697;PMS5003;51124;53.394;-6.294;2023-06-14T15:14:31;22;22;
64697;PMS5003;51124;53.394;-6.294;2023-06-14T15:16:56;21;21;
64697;PMS5003;51124;53.394;-6.294;2023-06-14T15:19:22;21;21;
64697;PMS5003;51124;53.394;-6.294;2023-06-14T15:21:48;21;21;
64697;PMS5003;51124;53.394;-6.294;2023-06-14T15:24:13;22;22;
64697;PMS5003;51124;53.394;-6.294;2023-06-14T15:26:39;21;20;
64697;PMS5003;51124;53.394;-6.294;2023-06-14T15:29:04;22;21;
64697;PMS5003;51124;53.394;-6.294;2023-06-14T15:31:29;23;23;
64697;PMS5003;51124;53.394;-6.294;2023-06-14T15:33:55;22;22;
64697;PMS5003;51124;53.394;-6.294;2023-06-14T15:36:20;20;20;
64697;PMS5003;51124;53.394;-6.294;2023-06-14T15:38:46;20;20;
64697;PMS5003;51124;53.394;-6.294;2023-06-14T15:41:11;24;22;
64697;PMS5003;51124;53.394;-6.294;2023-06-14T15:43:36;25;24;
64697;PMS5003;51124;53.394;-6.294;2023-06-14T15:46:02;23;22;
64697;PMS5003;51124;53.394;-6.294;2023-06-14T15:48:27;20;20;
64697;PMS5003;51124;53.394;-6.294;2023-06-14T15:50:53;21;21;
64697;PMS5003;51124;53.394;-6.294;2023-06-14T15:53:18;20;20;